createdAt,value
2017-11-16T00:00:18.800Z,6.62
2017-11-16T00:00:59.330Z,6.48
2017-11-16T00:01:39.893Z,6.59
2017-11-16T00:02:20.498Z,6.55
2017-11-16T00:03:01.016Z,6.41
2017-11-16T00:03:41.549Z,6.38
2017-11-16T00:04:22.097Z,6.49
2017-11-16T00:05:02.633Z,6.51
2017-11-16T00:05:43.200Z,6.58
2017-11-16T00:06:23.699Z,6.58
2017-11-16T00:07:04.247Z,6.52
2017-11-16T00:07:44.812Z,6.51
2017-11-16T00:08:25.338Z,6.59
2017-11-16T00:09:05.887Z,6.73
2017-11-16T00:09:46.406Z,6.7
2017-11-16T00:10:26.979Z,6.77
2017-11-16T00:11:07.545Z,6.8
2017-11-16T00:11:48.092Z,6.76
2017-11-16T00:12:28.631Z,6.77
2017-11-16T00:13:09.149Z,6.77
2017-11-16T00:13:49.695Z,6.74
2017-11-16T00:14:30.250Z,6.67
2017-11-16T00:15:10.848Z,6.54
2017-11-16T00:15:51.315Z,6.62
2017-11-16T00:16:31.817Z,6.66
2017-11-16T00:17:12.403Z,6.67
2017-11-16T00:17:52.983Z,6.67
2017-11-16T00:18:34.229Z,6.56
2017-11-16T00:19:14.764Z,6.66
2017-11-16T00:19:55.279Z,6.64
2017-11-16T00:20:35.844Z,6.67
2017-11-16T00:21:16.299Z,6.7
2017-11-16T00:21:56.872Z,6.66
2017-11-16T00:22:37.415Z,6.56
2017-11-16T00:23:18.004Z,6.43
2017-11-16T00:23:58.602Z,6.54
2017-11-16T00:24:39.102Z,6.52
2017-11-16T00:25:19.672Z,6.67
2017-11-16T00:26:00.227Z,6.62
2017-11-16T00:26:40.728Z,6.62
2017-11-16T00:27:21.379Z,6.67
2017-11-16T00:28:01.873Z,6.62
2017-11-16T00:28:42.449Z,6.61
2017-11-16T00:29:23.007Z,6.64
2017-11-16T00:30:03.526Z,6.4
2017-11-16T00:30:44.147Z,6.51
2017-11-16T00:31:24.674Z,6.54
2017-11-16T00:32:05.260Z,6.49
2017-11-16T00:32:45.901Z,6.49
2017-11-16T00:33:26.524Z,6.58
2017-11-16T00:34:07.082Z,6.64
2017-11-16T00:34:47.624Z,6.59
2017-11-16T00:35:28.207Z,6.56
2017-11-16T00:36:08.768Z,6.61
2017-11-16T00:36:49.317Z,6.69
2017-11-16T00:37:29.857Z,6.54
2017-11-16T00:38:10.402Z,6.64
2017-11-16T00:38:50.930Z,6.66
2017-11-16T00:39:31.484Z,6.67
2017-11-16T00:40:12.027Z,6.7
2017-11-16T00:40:52.591Z,6.56
2017-11-16T00:41:33.160Z,6.54
2017-11-16T00:42:13.769Z,6.58
2017-11-16T00:42:54.281Z,6.49
2017-11-16T00:43:34.888Z,6.55
2017-11-16T00:44:15.462Z,6.52
2017-11-16T00:44:56.007Z,6.55
2017-11-16T00:45:36.539Z,6.48
2017-11-16T00:46:17.095Z,6.52
2017-11-16T00:46:57.651Z,6.37
2017-11-16T00:47:38.201Z,6.46
2017-11-16T00:48:18.713Z,6.34
2017-11-16T00:48:59.279Z,6.38
2017-11-16T00:49:39.846Z,6.38
2017-11-16T00:50:20.405Z,6.48
2017-11-16T00:51:00.900Z,6.44
2017-11-16T00:51:41.444Z,6.43
2017-11-16T00:52:22.040Z,6.37
2017-11-16T00:53:02.548Z,6.3
2017-11-16T00:53:43.097Z,6.28
2017-11-16T00:54:23.610Z,6.27
2017-11-16T00:55:04.182Z,6.34
2017-11-16T00:55:44.672Z,6.3
2017-11-16T00:56:25.219Z,6.41
2017-11-16T00:57:05.764Z,6.33
2017-11-16T00:57:46.340Z,6.27
2017-11-16T00:58:26.875Z,6.48
2017-11-16T00:59:07.443Z,6.49
2017-11-16T00:59:47.959Z,6.49
2017-11-16T01:00:28.508Z,6.56
2017-11-16T01:01:09.063Z,6.51
2017-11-16T01:01:49.611Z,6.36
2017-11-16T01:02:30.163Z,6.44
2017-11-16T01:03:10.688Z,6.3
2017-11-16T01:03:51.262Z,6.48
2017-11-16T01:04:31.786Z,6.43
2017-11-16T01:05:12.320Z,6.37
2017-11-16T01:05:52.858Z,6.51
2017-11-16T01:06:33.403Z,6.41
2017-11-16T01:07:13.931Z,6.46
2017-11-16T01:07:54.482Z,6.36
2017-11-16T01:08:35.043Z,6.38
2017-11-16T01:09:15.601Z,6.28
2017-11-16T01:09:56.172Z,6.37
2017-11-16T01:10:36.664Z,6.21
2017-11-16T01:11:17.224Z,6.19
2017-11-16T01:11:57.758Z,6.33
2017-11-16T01:12:38.303Z,6.27
2017-11-16T01:13:18.839Z,6.38
2017-11-16T01:13:59.390Z,6.31
2017-11-16T01:14:39.960Z,6.12
2017-11-16T01:15:20.530Z,6.22
2017-11-16T01:16:01.028Z,6.25
2017-11-16T01:16:41.596Z,6.3
2017-11-16T01:17:22.132Z,6.37
2017-11-16T01:18:02.664Z,6.31
2017-11-16T01:18:43.207Z,6.27
2017-11-16T01:19:23.757Z,6.22
2017-11-16T01:20:04.310Z,6.3
2017-11-16T01:20:44.845Z,6.27
2017-11-16T01:21:25.370Z,6.33
2017-11-16T01:22:05.916Z,6.34
2017-11-16T01:22:46.426Z,6.28
2017-11-16T01:23:26.970Z,6.3
2017-11-16T01:24:07.541Z,6.38
2017-11-16T01:24:48.008Z,6.33
2017-11-16T01:25:28.562Z,6.33
2017-11-16T01:26:09.106Z,6.36
2017-11-16T01:26:49.681Z,6.28
2017-11-16T01:27:30.243Z,6.36
2017-11-16T01:28:10.768Z,6.36
2017-11-16T01:28:51.321Z,6.31
2017-11-16T01:29:31.871Z,6.27
2017-11-16T01:30:12.417Z,6.22
2017-11-16T01:30:52.964Z,6.15
2017-11-16T01:31:33.503Z,6.14
2017-11-16T01:32:14.040Z,6.21
2017-11-16T01:32:54.603Z,6.28
2017-11-16T01:33:35.126Z,6.17
2017-11-16T01:34:15.649Z,6.15
2017-11-16T01:34:56.172Z,6.18
2017-11-16T01:35:36.723Z,6.14
2017-11-16T01:36:17.274Z,6.18
2017-11-16T01:36:57.819Z,6.25
2017-11-16T01:37:38.364Z,6.3
2017-11-16T01:38:18.925Z,6.18
2017-11-16T01:38:59.487Z,6.14
2017-11-16T01:39:40.057Z,6.08
2017-11-16T01:40:20.564Z,6.19
2017-11-16T01:41:01.111Z,6.06
2017-11-16T01:41:41.680Z,6.03
2017-11-16T01:42:22.157Z,6.08
2017-11-16T01:43:02.713Z,6.14
2017-11-16T01:43:43.253Z,6.15
2017-11-16T01:44:23.787Z,6.03
2017-11-16T01:45:04.315Z,6.03
2017-11-16T01:45:44.887Z,6.01
2017-11-16T01:46:25.376Z,6.06
2017-11-16T01:47:05.905Z,6.14
2017-11-16T01:47:46.473Z,6.27
2017-11-16T01:48:27.009Z,6.17
2017-11-16T01:49:07.595Z,6.15
2017-11-16T01:49:48.158Z,6.17
2017-11-16T01:50:28.707Z,6.17
2017-11-16T01:51:09.207Z,6.12
2017-11-16T01:51:49.718Z,6.11
2017-11-16T01:52:30.291Z,5.99
2017-11-16T01:53:10.887Z,5.96
2017-11-16T01:53:51.410Z,6.01
2017-11-16T01:54:31.967Z,5.97
2017-11-16T01:55:12.523Z,5.99
2017-11-16T01:55:53.037Z,5.96
2017-11-16T01:56:33.570Z,6.08
2017-11-16T01:57:14.076Z,5.9
2017-11-16T01:57:54.649Z,5.94
2017-11-16T01:58:35.158Z,5.86
2017-11-16T01:59:15.775Z,5.86
2017-11-16T01:59:56.308Z,5.76
2017-11-16T02:00:36.988Z,5.83
2017-11-16T02:01:17.501Z,5.64
2017-11-16T02:01:58.033Z,5.64
2017-11-16T02:02:38.574Z,5.9
2017-11-16T02:03:19.133Z,5.81
2017-11-16T02:03:59.639Z,5.89
2017-11-16T02:04:40.183Z,5.89
2017-11-16T02:05:20.767Z,5.9
2017-11-16T02:06:01.328Z,5.93
2017-11-16T02:06:41.872Z,5.99
2017-11-16T02:07:22.446Z,5.97
2017-11-16T02:08:03.071Z,5.96
2017-11-16T02:08:43.533Z,5.93
2017-11-16T02:09:24.089Z,5.83
2017-11-16T02:10:04.693Z,6.03
2017-11-16T02:10:45.174Z,5.99
2017-11-16T02:11:25.737Z,5.99
2017-11-16T02:12:06.308Z,5.81
2017-11-16T02:12:46.886Z,5.83
2017-11-16T02:13:27.405Z,5.79
2017-11-16T02:14:07.925Z,5.79
2017-11-16T02:14:48.474Z,5.85
2017-11-16T02:15:29.031Z,5.83
2017-11-16T02:16:09.548Z,5.85
2017-11-16T02:16:50.080Z,5.83
2017-11-16T02:17:30.594Z,5.76
2017-11-16T02:18:11.254Z,5.71
2017-11-16T02:18:51.809Z,5.71
2017-11-16T02:19:32.357Z,5.72
2017-11-16T02:20:12.911Z,5.65
2017-11-16T02:20:53.470Z,5.86
2017-11-16T02:21:33.997Z,5.63
2017-11-16T02:22:14.547Z,5.71
2017-11-16T02:22:55.051Z,5.74
2017-11-16T02:23:35.602Z,5.85
2017-11-16T02:24:16.157Z,5.86
2017-11-16T02:24:56.747Z,5.83
2017-11-16T02:25:37.289Z,5.67
2017-11-16T02:26:17.804Z,5.81
2017-11-16T02:26:58.335Z,5.74
2017-11-16T02:27:38.890Z,5.71
2017-11-16T02:28:19.416Z,5.68
2017-11-16T02:28:59.949Z,5.68
2017-11-16T02:29:40.478Z,5.83
2017-11-16T02:30:21.028Z,5.63
2017-11-16T02:31:01.566Z,5.65
2017-11-16T02:31:42.114Z,5.57
2017-11-16T02:32:22.646Z,5.49
2017-11-16T02:33:03.194Z,5.49
2017-11-16T02:33:43.716Z,5.6
2017-11-16T02:34:24.313Z,5.63
2017-11-16T02:35:04.794Z,5.83
2017-11-16T02:35:45.356Z,5.65
2017-11-16T02:36:25.898Z,5.67
2017-11-16T02:37:06.466Z,5.61
2017-11-16T02:37:47.007Z,5.58
2017-11-16T02:38:27.539Z,5.74
2017-11-16T02:39:08.062Z,5.63
2017-11-16T02:39:48.610Z,5.65
2017-11-16T02:40:29.158Z,5.79
2017-11-16T02:41:09.692Z,5.68
2017-11-16T02:41:50.224Z,5.78
2017-11-16T02:42:30.719Z,5.86
2017-11-16T02:43:11.261Z,5.82
2017-11-16T02:43:51.802Z,5.83
2017-11-16T02:44:32.444Z,5.89
2017-11-16T02:45:13.001Z,5.86
2017-11-16T02:45:53.556Z,5.85
2017-11-16T02:46:34.087Z,5.67
2017-11-16T02:47:14.624Z,5.71
2017-11-16T02:47:55.173Z,5.86
2017-11-16T02:48:35.701Z,5.97
2017-11-16T02:49:16.253Z,5.82
2017-11-16T02:49:56.778Z,5.85
2017-11-16T02:50:37.307Z,5.86
2017-11-16T02:51:17.893Z,5.91
2017-11-16T02:51:58.410Z,5.89
2017-11-16T02:52:38.945Z,5.83
2017-11-16T02:53:19.495Z,5.82
2017-11-16T02:54:00.065Z,5.85
2017-11-16T02:54:40.628Z,5.83
2017-11-16T02:55:21.107Z,5.65
2017-11-16T02:56:01.656Z,5.61
2017-11-16T02:56:42.190Z,5.67
2017-11-16T02:57:22.725Z,5.65
2017-11-16T02:58:03.286Z,5.72
2017-11-16T02:58:43.831Z,5.74
2017-11-16T02:59:24.376Z,5.78
2017-11-16T03:00:04.925Z,5.9
2017-11-16T03:00:45.478Z,5.86
2017-11-16T03:01:26.054Z,5.83
2017-11-16T03:02:06.582Z,5.94
2017-11-16T03:02:47.124Z,5.9
2017-11-16T03:03:27.684Z,5.97
2017-11-16T03:04:08.224Z,5.96
2017-11-16T03:04:48.790Z,5.96
2017-11-16T03:05:29.331Z,6
2017-11-16T03:06:09.885Z,6.08
2017-11-16T03:06:50.444Z,6.3
2017-11-16T03:07:30.988Z,6.19
2017-11-16T03:08:11.547Z,6.22
2017-11-16T03:08:52.071Z,6.3
2017-11-16T03:09:32.607Z,6.22
2017-11-16T03:10:13.204Z,6.28
2017-11-16T03:10:53.696Z,6.33
2017-11-16T03:11:34.275Z,6.28
2017-11-16T03:12:14.796Z,6.21
2017-11-16T03:12:55.371Z,6.22
2017-11-16T03:13:35.945Z,6.38
2017-11-16T03:14:16.421Z,6.3
2017-11-16T03:14:57.052Z,6.25
2017-11-16T03:15:37.524Z,6.33
2017-11-16T03:16:18.097Z,6.31
2017-11-16T03:16:58.615Z,6.3
2017-11-16T03:17:39.194Z,6.3
2017-11-16T03:18:19.700Z,6.28
2017-11-16T03:19:00.249Z,6.18
2017-11-16T03:19:40.779Z,6.21
2017-11-16T03:20:21.329Z,6.19
2017-11-16T03:21:01.911Z,6.18
2017-11-16T03:21:42.437Z,6.21
2017-11-16T03:22:22.983Z,6.14
2017-11-16T03:23:03.574Z,6.21
2017-11-16T03:23:44.112Z,6.12
2017-11-16T03:24:24.659Z,6.22
2017-11-16T03:25:05.225Z,6.18
2017-11-16T03:25:45.757Z,6.17
2017-11-16T03:26:26.331Z,6.22
2017-11-16T03:27:06.862Z,6.36
2017-11-16T03:27:47.421Z,6.33
2017-11-16T03:28:27.999Z,6.3
2017-11-16T03:29:08.530Z,6.28
2017-11-16T03:29:49.084Z,6.21
2017-11-16T03:30:29.664Z,6.15
2017-11-16T03:31:10.210Z,6.17
2017-11-16T03:31:50.786Z,6.34
2017-11-16T03:32:31.292Z,6.33
2017-11-16T03:33:11.851Z,6.18
2017-11-16T03:33:52.920Z,6.21
2017-11-16T03:34:33.458Z,6.31
2017-11-16T03:35:14.003Z,6.36
2017-11-16T03:35:54.563Z,6.43
2017-11-16T03:36:35.118Z,6.37
2017-11-16T03:37:15.659Z,6.33
2017-11-16T03:37:56.186Z,6.33
2017-11-16T03:38:36.703Z,6.28
2017-11-16T03:39:17.269Z,6.33
2017-11-16T03:39:57.824Z,6.33
2017-11-16T03:40:38.389Z,6.38
2017-11-16T03:41:18.958Z,6.34
2017-11-16T03:41:59.484Z,6.25
2017-11-16T03:42:40.052Z,6.46
2017-11-16T03:43:20.623Z,6.48
2017-11-16T03:44:01.110Z,6.49
2017-11-16T03:44:41.654Z,6.49
2017-11-16T03:45:22.194Z,6.58
2017-11-16T03:46:02.721Z,6.56
2017-11-16T03:46:43.272Z,6.44
2017-11-16T03:47:23.798Z,6.48
2017-11-16T03:48:04.329Z,6.52
2017-11-16T03:48:44.914Z,6.48
2017-11-16T03:49:25.545Z,6.46
2017-11-16T03:50:06.008Z,6.49
2017-11-16T03:50:46.553Z,6.38
2017-11-16T03:51:27.101Z,6.44
2017-11-16T03:52:07.661Z,6.46
2017-11-16T03:52:48.205Z,6.49
2017-11-16T03:53:28.773Z,6.33
2017-11-16T03:54:09.303Z,6.27
2017-11-16T03:54:49.856Z,6.25
2017-11-16T03:55:30.405Z,6.15
2017-11-16T03:56:10.977Z,6.33
2017-11-16T03:56:51.547Z,6.27
2017-11-16T03:57:32.095Z,6.27
2017-11-16T03:58:12.650Z,6.19
2017-11-16T03:58:53.213Z,6.18
2017-11-16T03:59:33.767Z,6.19
2017-11-16T04:00:14.322Z,6
2017-11-16T04:00:54.880Z,6.08
2017-11-16T04:01:35.447Z,5.97
2017-11-16T04:02:16.017Z,5.99
2017-11-16T04:02:56.575Z,6.19
2017-11-16T04:03:37.113Z,6.25
2017-11-16T04:04:17.648Z,6.14
2017-11-16T04:04:58.206Z,6.21
2017-11-16T04:05:38.758Z,6.25
2017-11-16T04:06:19.381Z,6.27
2017-11-16T04:06:59.919Z,6.21
2017-11-16T04:07:40.454Z,6.22
2017-11-16T04:08:21.014Z,6.17
2017-11-16T04:09:01.602Z,6.15
2017-11-16T04:09:42.165Z,6.28
2017-11-16T04:10:22.686Z,6.34
2017-11-16T04:11:03.227Z,6.11
2017-11-16T04:11:43.780Z,6.31
2017-11-16T04:12:24.361Z,6.33
2017-11-16T04:13:04.913Z,6.36
2017-11-16T04:13:45.486Z,6.27
2017-11-16T04:14:25.961Z,6.37
2017-11-16T04:15:06.519Z,6.34
2017-11-16T04:15:47.048Z,6.28
2017-11-16T04:16:27.586Z,6.37
2017-11-16T04:17:08.151Z,6.22
2017-11-16T04:17:48.675Z,6.19
2017-11-16T04:18:29.257Z,6.34
2017-11-16T04:19:09.800Z,6.28
2017-11-16T04:19:50.343Z,6.28
2017-11-16T04:20:30.905Z,6.48
2017-11-16T04:21:11.433Z,6.25
2017-11-16T04:21:51.985Z,6.37
2017-11-16T04:22:32.551Z,6.46
2017-11-16T04:23:13.079Z,6.48
2017-11-16T04:23:53.616Z,6.41
2017-11-16T04:24:34.129Z,6.38
2017-11-16T04:25:14.729Z,6.28
2017-11-16T04:25:55.228Z,6.34
2017-11-16T04:26:35.772Z,6.28
2017-11-16T04:27:16.335Z,6.3
2017-11-16T04:27:56.890Z,6.28
2017-11-16T04:28:37.428Z,6.28
2017-11-16T04:29:17.976Z,6.33
2017-11-16T04:29:58.517Z,6.37
2017-11-16T04:30:39.065Z,6.4
2017-11-16T04:31:19.614Z,6.43
2017-11-16T04:32:00.144Z,6.51
2017-11-16T04:32:40.677Z,6.51
2017-11-16T04:33:21.216Z,6.52
2017-11-16T04:34:01.760Z,6.52
2017-11-16T04:34:42.338Z,6.48
2017-11-16T04:35:22.910Z,6.52
2017-11-16T04:36:03.473Z,6.58
2017-11-16T04:36:44.030Z,6.46
2017-11-16T04:37:24.561Z,6.43
2017-11-16T04:38:05.116Z,6.51
2017-11-16T04:38:45.681Z,6.55
2017-11-16T04:39:26.213Z,6.58
2017-11-16T04:40:06.749Z,6.66
2017-11-16T04:40:47.313Z,6.56
2017-11-16T04:41:27.892Z,6.48
2017-11-16T04:42:08.447Z,6.41
2017-11-16T04:42:48.980Z,6.38
2017-11-16T04:43:29.531Z,6.38
2017-11-16T04:44:10.049Z,6.34
2017-11-16T04:44:50.596Z,6.48
2017-11-16T04:45:31.145Z,6.48
2017-11-16T04:46:11.701Z,6.51
2017-11-16T04:46:52.287Z,6.37
2017-11-16T04:47:32.799Z,6.49
2017-11-16T04:48:13.432Z,6.55
2017-11-16T04:48:53.977Z,6.56
2017-11-16T04:49:34.532Z,6.51
2017-11-16T04:50:15.082Z,6.46
2017-11-16T04:50:55.625Z,6.66
2017-11-16T04:51:36.157Z,6.56
2017-11-16T04:52:16.673Z,6.51
2017-11-16T04:52:57.224Z,6.49
2017-11-16T04:53:37.771Z,6.37
2017-11-16T04:54:18.308Z,6.37
2017-11-16T04:54:58.850Z,6.25
2017-11-16T04:55:39.356Z,6.19
2017-11-16T04:56:19.900Z,6.28
2017-11-16T04:57:00.453Z,6.27
2017-11-16T04:57:40.942Z,6.33
2017-11-16T04:58:21.460Z,6.36
2017-11-16T04:59:02.011Z,6.37
2017-11-16T04:59:42.500Z,6.44
2017-11-16T05:00:23.085Z,6.38
2017-11-16T05:01:03.587Z,6.38
2017-11-16T05:01:44.211Z,6.34
2017-11-16T05:02:24.756Z,6.43
2017-11-16T05:03:05.310Z,6.46
2017-11-16T05:03:45.800Z,6.44
2017-11-16T05:04:26.324Z,6.43
2017-11-16T05:05:06.859Z,6.48
2017-11-16T05:05:47.429Z,6.49
2017-11-16T05:06:27.960Z,6.46
2017-11-16T05:07:08.486Z,6.46
2017-11-16T05:07:49.054Z,6.37
2017-11-16T05:08:29.603Z,6.4
2017-11-16T05:09:10.143Z,6.51
2017-11-16T05:09:50.661Z,6.56
2017-11-16T05:10:31.201Z,6.56
2017-11-16T05:11:11.726Z,6.59
2017-11-16T05:11:52.260Z,6.61
2017-11-16T05:12:32.812Z,6.58
2017-11-16T05:13:13.324Z,6.56
2017-11-16T05:13:53.901Z,6.56
2017-11-16T05:14:34.475Z,6.62
2017-11-16T05:15:14.972Z,6.64
2017-11-16T05:15:55.485Z,6.59
2017-11-16T05:16:36.047Z,6.58
2017-11-16T05:17:16.626Z,6.61
2017-11-16T05:17:57.134Z,6.66
2017-11-16T05:18:37.681Z,6.73
2017-11-16T05:19:18.341Z,6.73
2017-11-16T05:19:58.987Z,6.51
2017-11-16T05:20:39.546Z,6.58
2017-11-16T05:21:20.118Z,6.66
2017-11-16T05:22:02.264Z,6.77
2017-11-16T05:22:41.732Z,6.67
2017-11-16T05:23:22.434Z,6.56
2017-11-16T05:24:02.901Z,6.59
2017-11-16T05:24:43.468Z,6.58
2017-11-16T05:25:24.097Z,6.66
2017-11-16T05:26:04.709Z,6.48
2017-11-16T05:26:45.312Z,6.48
2017-11-16T05:27:25.793Z,6.64
2017-11-16T05:28:06.367Z,6.58
2017-11-16T05:28:47.070Z,6.59
2017-11-16T05:29:27.616Z,6.56
2017-11-16T05:30:08.107Z,6.61
2017-11-16T05:30:48.649Z,6.43
2017-11-16T05:31:29.181Z,6.28
2017-11-16T05:32:09.720Z,6.41
2017-11-16T05:32:50.247Z,6.41
2017-11-16T05:33:31.353Z,6.49
2017-11-16T05:34:11.933Z,6.4
2017-11-16T05:34:52.482Z,6.28
2017-11-16T05:35:33.032Z,6.44
2017-11-16T05:36:13.532Z,6.34
2017-11-16T05:36:54.084Z,6.11
2017-11-16T05:37:34.658Z,6.36
2017-11-16T05:38:15.189Z,6.3
2017-11-16T05:38:55.728Z,6.34
2017-11-16T05:39:36.299Z,6.48
2017-11-16T05:40:16.822Z,6.44
2017-11-16T05:40:57.378Z,6.4
2017-11-16T05:41:37.913Z,6.48
2017-11-16T05:42:18.459Z,6.48
2017-11-16T05:42:58.978Z,6.41
2017-11-16T05:43:39.537Z,6.4
2017-11-16T05:44:20.063Z,6.41
2017-11-16T05:45:00.687Z,6.41
2017-11-16T05:45:41.268Z,6.34
2017-11-16T05:46:21.804Z,6.43
2017-11-16T05:47:02.319Z,6.51
2017-11-16T05:47:42.877Z,6.41
2017-11-16T05:48:23.455Z,6.14
2017-11-16T05:49:04.015Z,6.25
2017-11-16T05:49:44.564Z,6.27
2017-11-16T05:50:25.113Z,6.28
2017-11-16T05:51:05.659Z,6.34
2017-11-16T05:51:46.218Z,6.36
2017-11-16T05:52:26.748Z,6.28
2017-11-16T05:53:07.273Z,6.37
2017-11-16T05:53:47.818Z,6.33
2017-11-16T05:54:28.359Z,6.3
2017-11-16T05:55:08.868Z,6.3
2017-11-16T05:55:49.403Z,6.37
2017-11-16T05:56:29.931Z,6.38
2017-11-16T05:57:10.535Z,6.28
2017-11-16T05:57:51.070Z,6.25
2017-11-16T05:58:31.578Z,6.3
2017-11-16T05:59:12.148Z,6.31
2017-11-16T05:59:52.704Z,6.3
2017-11-16T06:00:33.298Z,6.22
2017-11-16T06:01:13.850Z,6.31
2017-11-16T06:01:54.403Z,6.27
2017-11-16T06:02:35.201Z,6.33
2017-11-16T06:03:15.728Z,6.31
2017-11-16T06:03:56.326Z,6.43
2017-11-16T06:04:36.844Z,6.36
2017-11-16T06:05:17.456Z,6.37
2017-11-16T06:05:58.000Z,6.38
2017-11-16T06:06:38.565Z,6.4
2017-11-16T06:07:19.092Z,6.48
2017-11-16T06:07:59.669Z,6.62
2017-11-16T06:08:40.228Z,6.46
2017-11-16T06:09:20.746Z,6.31
2017-11-16T06:10:01.277Z,6.33
2017-11-16T06:10:41.798Z,6.34
2017-11-16T06:11:22.405Z,6.37
2017-11-16T06:12:02.915Z,6.49
2017-11-16T06:12:43.459Z,6.44
2017-11-16T06:13:24.016Z,6.41
2017-11-16T06:14:04.575Z,6.46
2017-11-16T06:14:45.131Z,6.44
2017-11-16T06:15:25.720Z,6.51
2017-11-16T06:16:06.293Z,6.54
2017-11-16T06:16:46.799Z,6.41
2017-11-16T06:17:27.351Z,6.46
2017-11-16T06:18:07.887Z,6.54
2017-11-16T06:18:48.424Z,6.49
2017-11-16T06:19:29.744Z,6.51
2017-11-16T06:20:10.293Z,6.49
2017-11-16T06:20:50.860Z,6.44
2017-11-16T06:21:31.404Z,6.41
2017-11-16T06:22:11.974Z,6.3
2017-11-16T06:22:52.464Z,6.48
2017-11-16T06:23:32.999Z,6.31
2017-11-16T06:24:13.530Z,6.44
2017-11-16T06:24:54.037Z,6.4
2017-11-16T06:25:34.592Z,6.34
2017-11-16T06:26:15.155Z,6.48
2017-11-16T06:26:55.639Z,6.46
2017-11-16T06:27:36.182Z,6.56
2017-11-16T06:28:16.740Z,6.46
2017-11-16T06:28:57.286Z,6.48
2017-11-16T06:29:37.880Z,6.55
2017-11-16T06:30:19.065Z,6.54
2017-11-16T06:30:59.754Z,6.48
2017-11-16T06:31:40.270Z,6.56
2017-11-16T06:32:21.243Z,6.64
2017-11-16T06:33:01.799Z,6.58
2017-11-16T06:33:43.048Z,6.59
2017-11-16T06:34:23.338Z,6.58
2017-11-16T06:35:03.894Z,6.46
2017-11-16T06:35:44.415Z,6.25
2017-11-16T06:36:25.840Z,6.18
2017-11-16T06:37:06.400Z,6.31
2017-11-16T06:37:47.044Z,6.33
2017-11-16T06:38:27.547Z,6.41
2017-11-16T06:39:08.104Z,6.27
2017-11-16T06:39:48.682Z,6.3
2017-11-16T06:40:29.102Z,6.28
2017-11-16T06:41:09.659Z,6.44
2017-11-16T06:41:50.235Z,6.43
2017-11-16T06:42:30.779Z,6.44
2017-11-16T06:43:11.329Z,6.41
2017-11-16T06:43:51.921Z,6.56
2017-11-16T06:44:35.562Z,6.38
2017-11-16T06:45:16.400Z,6.41
2017-11-16T06:45:56.860Z,6.28
2017-11-16T06:46:37.438Z,6.37
2017-11-16T06:47:17.978Z,6.36
2017-11-16T06:47:58.628Z,6.34
2017-11-16T06:48:39.176Z,6.41
2017-11-16T06:49:19.731Z,6.37
2017-11-16T06:50:00.277Z,6.43
2017-11-16T06:50:40.768Z,6.51
2017-11-16T06:51:21.312Z,6.36
2017-11-16T06:52:01.844Z,6.43
2017-11-16T06:52:42.410Z,6.44
2017-11-16T06:53:23.060Z,6.33
2017-11-16T06:54:04.006Z,6.34
2017-11-16T06:54:44.035Z,6.41
2017-11-16T06:55:24.610Z,6.34
2017-11-16T06:56:05.159Z,6.37
2017-11-16T06:56:45.677Z,6.33
2017-11-16T06:57:26.330Z,6.21
2017-11-16T06:58:06.833Z,6.22
2017-11-16T06:58:47.410Z,6.14
2017-11-16T06:59:27.970Z,6.18
2017-11-16T07:00:08.517Z,6.08
2017-11-16T07:00:49.079Z,6.3
2017-11-16T07:01:29.639Z,6.17
2017-11-16T07:02:10.160Z,6.22
2017-11-16T07:02:50.706Z,6.34
2017-11-16T07:04:38.701Z,6.44
2017-11-16T07:05:19.301Z,6.46
2017-11-16T07:05:59.854Z,6.41
2017-11-16T07:06:40.449Z,6.43
2017-11-16T07:07:20.967Z,6.46
2017-11-16T07:08:01.532Z,6.4
2017-11-16T07:08:42.101Z,6.37
2017-11-16T07:09:22.948Z,6.36
2017-11-16T07:10:03.500Z,6.52
2017-11-16T07:10:43.987Z,6.37
2017-11-16T07:11:24.588Z,6.43
2017-11-16T07:12:05.158Z,6.41
2017-11-16T07:12:45.682Z,6.43
2017-11-16T07:13:26.253Z,6.33
2017-11-16T07:14:06.820Z,6.34
2017-11-16T07:14:47.316Z,6.4
2017-11-16T07:15:27.917Z,6.4
2017-11-16T07:16:08.439Z,6.51
2017-11-16T07:16:48.997Z,6.64
2017-11-16T07:17:29.849Z,6.76
2017-11-16T07:18:10.416Z,6.8
2017-11-16T07:18:51.013Z,6.64
2017-11-16T07:19:31.554Z,6.73
2017-11-16T07:20:12.088Z,6.76
2017-11-16T07:20:52.660Z,6.49
2017-11-16T07:21:33.222Z,6.44
2017-11-16T07:22:13.763Z,6.44
2017-11-16T07:22:54.267Z,6.64
2017-11-16T07:23:34.855Z,6.74
2017-11-16T07:24:15.366Z,6.69
2017-11-16T07:24:55.868Z,6.69
2017-11-16T07:25:36.454Z,6.62
2017-11-16T07:26:17.001Z,6.62
2017-11-16T07:26:57.543Z,6.69
2017-11-16T07:27:38.098Z,6.67
2017-11-16T07:28:18.633Z,6.64
2017-11-16T07:28:59.156Z,6.61
2017-11-16T07:29:39.830Z,6.69
2017-11-16T07:30:20.353Z,6.8
2017-11-16T07:31:00.884Z,6.77
2017-11-16T07:31:41.383Z,6.62
2017-11-16T07:32:21.866Z,6.59
2017-11-16T07:33:02.443Z,6.64
2017-11-16T07:33:42.945Z,6.49
2017-11-16T07:34:23.496Z,6.52
2017-11-16T07:35:04.046Z,6.34
2017-11-16T07:35:44.606Z,6.21
2017-11-16T07:36:25.174Z,6.31
2017-11-16T07:37:05.802Z,6.3
2017-11-16T07:37:46.322Z,6.28
2017-11-16T07:38:26.929Z,6.37
2017-11-16T07:39:07.455Z,6.46
2017-11-16T07:39:48.341Z,6.64
2017-11-16T07:40:29.008Z,6.73
2017-11-16T07:41:09.520Z,6.64
2017-11-16T07:41:50.099Z,6.46
2017-11-16T07:42:30.634Z,6.61
2017-11-16T07:43:11.172Z,6.62
2017-11-16T07:43:51.703Z,6.44
2017-11-16T07:44:32.220Z,6.48
2017-11-16T07:45:12.791Z,6.59
2017-11-16T07:45:53.361Z,6.67
2017-11-16T07:46:33.925Z,6.76
2017-11-16T07:47:14.443Z,6.67
2017-11-16T07:47:55.189Z,6.69
2017-11-16T07:48:35.888Z,6.74
2017-11-16T07:49:16.366Z,6.73
2017-11-16T07:49:56.895Z,6.71
2017-11-16T07:50:37.404Z,6.8
2017-11-16T07:51:18.007Z,6.77
2017-11-16T07:51:58.482Z,6.69
2017-11-16T07:52:39.038Z,6.58
2017-11-16T07:53:19.606Z,6.61
2017-11-16T07:54:00.105Z,6.62
2017-11-16T07:54:40.703Z,6.64
2017-11-16T07:55:21.234Z,6.48
2017-11-16T07:56:01.914Z,6.46
2017-11-16T07:56:42.453Z,6.48
2017-11-16T07:57:23.018Z,6.43
2017-11-16T07:58:03.785Z,6.48
2017-11-16T07:58:44.333Z,6.44
2017-11-16T07:59:24.923Z,6.41
2017-11-16T08:00:05.428Z,6.27
2017-11-16T08:00:45.973Z,6.12
2017-11-16T08:01:26.683Z,6.3
2017-11-16T08:02:07.262Z,6.44
2017-11-16T08:02:47.819Z,6.41
2017-11-16T08:03:28.728Z,6.48
2017-11-16T08:04:09.222Z,6.52
2017-11-16T08:04:49.847Z,6.59
2017-11-16T08:05:30.333Z,6.64
2017-11-16T08:06:10.866Z,6.66
2017-11-16T08:06:51.513Z,6.37
2017-11-16T08:07:32.029Z,6.37
2017-11-16T08:08:12.587Z,6.48
2017-11-16T08:08:53.119Z,6.52
2017-11-16T08:09:33.850Z,6.46
2017-11-16T08:10:14.445Z,6.61
2017-11-16T08:10:54.956Z,6.58
2017-11-16T08:11:35.573Z,6.67
2017-11-16T08:12:16.079Z,6.62
2017-11-16T08:12:56.663Z,6.71
2017-11-16T08:13:37.184Z,6.69
2017-11-16T08:14:17.723Z,6.71
2017-11-16T08:14:58.387Z,6.56
2017-11-16T08:15:38.872Z,6.61
2017-11-16T08:16:19.423Z,6.62
2017-11-16T08:16:59.964Z,6.58
2017-11-16T08:17:40.448Z,6.66
2017-11-16T08:18:21.021Z,6.69
2017-11-16T08:19:01.679Z,6.67
2017-11-16T08:19:42.286Z,6.8
2017-11-16T08:20:22.955Z,6.73
2017-11-16T08:21:03.423Z,6.71
2017-11-16T08:21:43.918Z,6.59
2017-11-16T08:22:24.416Z,6.59
2017-11-16T08:23:04.979Z,6.51
2017-11-16T08:23:45.530Z,6.61
2017-11-16T08:24:26.066Z,6.69
2017-11-16T08:25:06.621Z,6.7
2017-11-16T08:25:47.151Z,6.74
2017-11-16T08:26:27.829Z,6.7
2017-11-16T08:27:08.353Z,6.8
2017-11-16T08:27:48.933Z,6.84
2017-11-16T08:28:29.565Z,6.84
2017-11-16T08:29:10.157Z,6.64
2017-11-16T08:29:50.745Z,6.76
2017-11-16T08:30:31.302Z,6.85
2017-11-16T08:31:11.859Z,6.89
2017-11-16T08:31:52.542Z,6.97
2017-11-16T08:32:33.001Z,7.13
2017-11-16T08:33:13.579Z,7.03
2017-11-16T08:33:54.166Z,7.1
2017-11-16T08:34:34.704Z,6.97
2017-11-16T08:35:15.204Z,7.02
2017-11-16T08:35:55.776Z,7.07
2017-11-16T08:36:36.434Z,7.13
2017-11-16T08:37:17.057Z,7.02
2017-11-16T08:37:57.519Z,7.09
2017-11-16T08:38:38.098Z,7.06
2017-11-16T08:39:18.613Z,7.17
2017-11-16T08:39:59.142Z,7.15
2017-11-16T08:40:39.656Z,7.21
2017-11-16T08:41:20.199Z,7.16
2017-11-16T08:42:00.775Z,7.25
2017-11-16T08:42:41.766Z,7.1
2017-11-16T08:43:22.318Z,6.98
2017-11-16T08:44:02.859Z,6.84
2017-11-16T08:44:43.401Z,6.99
2017-11-16T08:45:24.005Z,7.07
2017-11-16T08:46:04.576Z,7.06
2017-11-16T08:46:45.111Z,7.12
2017-11-16T08:47:25.666Z,7.16
2017-11-16T08:48:06.232Z,7.28
2017-11-16T08:48:46.762Z,7.3
2017-11-16T08:49:27.251Z,7.39
2017-11-16T08:50:07.828Z,7.42
2017-11-16T08:50:48.369Z,7.39
2017-11-16T08:51:28.884Z,7.4
2017-11-16T08:52:09.395Z,7.53
2017-11-16T08:52:50.001Z,7.52
2017-11-16T08:53:30.599Z,7.58
2017-11-16T08:54:11.194Z,7.53
2017-11-16T08:54:51.684Z,7.45
2017-11-16T08:55:32.258Z,7.21
2017-11-16T08:56:12.825Z,7.31
2017-11-16T08:56:53.322Z,7.35
2017-11-16T08:57:33.841Z,7.45
2017-11-16T08:58:14.501Z,7.42
2017-11-16T08:58:55.084Z,7.55
2017-11-16T08:59:35.782Z,7.57
2017-11-16T09:00:16.258Z,7.48
2017-11-16T09:00:56.875Z,7.43
2017-11-16T09:01:37.447Z,7.55
2017-11-16T09:02:18.258Z,7.68